Chillicothe, Iowa
Current Conditions -  °F | °C
As of 9:30 AM on Saturday 22 Nov 2014 (Local Time) from KOTM Reporting Station
Haze Haze  
Wind Chill: 40°   Ceiling: 300
Heat Index: 46°   Visibility: 2mi
Dew Point: 45°   Wind: 14mph
Humidity: 96%   Direction: 250°WSW
Pressure: 29.91"   Gusts: NA
Location:  41.09°N, 92.53°W
Report Text: KOTM 221530Z AUTO 25012KT 2SM BR BKN003 OVC006 08/07 A2991 RMK AO2 T00780072
Loading
Personal Weather Stations






























Interactive Weather Map New forecast layout! Learn more

10-Day Weather Forecast

Advertisements
Track Severe Weather on mobile